sensor_id;sensor_type;location;lat;lon;timestamp;temperature;humidity
30186;DHT22;31152;49.190;8.122;2022-07-29T00:01:15;23.10;64.20
30186;DHT22;31152;49.190;8.122;2022-07-29T00:03:45;23.10;65.30
30186;DHT22;31152;49.190;8.122;2022-07-29T00:06:12;23.10;64.80
30186;DHT22;31152;49.190;8.122;2022-07-29T00:08:39;23.00;65.10
30186;DHT22;31152;49.190;8.122;2022-07-29T00:11:06;23.00;65.50
30186;DHT22;31152;49.190;8.122;2022-07-29T00:13:33;22.90;66.10
30186;DHT22;31152;49.190;8.122;2022-07-29T00:16:02;22.90;66.40
30186;DHT22;31152;49.190;8.122;2022-07-29T00:18:33;22.90;67.00
30186;DHT22;31152;49.190;8.122;2022-07-29T00:21:00;22.90;67.20
30186;DHT22;31152;49.190;8.122;2022-07-29T00:23:27;22.90;66.90
30186;DHT22;31152;49.190;8.122;2022-07-29T00:25:53;22.80;67.30
30186;DHT22;31152;49.190;8.122;2022-07-29T00:28:20;22.80;67.50
30186;DHT22;31152;49.190;8.122;2022-07-29T00:30:47;22.80;67.30
30186;DHT22;31152;49.190;8.122;2022-07-29T00:33:14;22.80;67.80
30186;DHT22;31152;49.190;8.122;2022-07-29T00:35:40;22.80;67.40
30186;DHT22;31152;49.190;8.122;2022-07-29T00:38:14;22.70;66.70
30186;DHT22;31152;49.190;8.122;2022-07-29T00:40:41;22.70;66.60
30186;DHT22;31152;49.190;8.122;2022-07-29T00:43:13;22.70;66.30
30186;DHT22;31152;49.190;8.122;2022-07-29T00:45:41;22.70;66.10
30186;DHT22;31152;49.190;8.122;2022-07-29T00:48:08;22.60;66.20
30186;DHT22;31152;49.190;8.122;2022-07-29T00:50:40;22.60;66.40
30186;DHT22;31152;49.190;8.122;2022-07-29T00:53:11;22.60;66.50
30186;DHT22;31152;49.190;8.122;2022-07-29T00:55:38;22.60;66.70
30186;DHT22;31152;49.190;8.122;2022-07-29T00:58:06;22.50;66.90
30186;DHT22;31152;49.190;8.122;2022-07-29T01:00:35;22.50;67.20
30186;DHT22;31152;49.190;8.122;2022-07-29T01:03:03;22.50;67.40
30186;DHT22;31152;49.190;8.122;2022-07-29T01:05:35;22.50;67.90
30186;DHT22;31152;49.190;8.122;2022-07-29T01:08:17;22.50;68.00
30186;DHT22;31152;49.190;8.122;2022-07-29T01:10:47;22.50;68.40
30186;DHT22;31152;49.190;8.122;2022-07-29T01:13:17;22.40;68.80
30186;DHT22;31152;49.190;8.122;2022-07-29T01:15:47;22.40;68.80
30186;DHT22;31152;49.190;8.122;2022-07-29T01:18:34;22.40;69.50
30186;DHT22;31152;49.190;8.122;2022-07-29T01:26:45;22.30;69.40
30186;DHT22;31152;49.190;8.122;2022-07-29T01:29:41;22.30;69.10
30186;DHT22;31152;49.190;8.122;2022-07-29T01:32:17;22.20;68.70
30186;DHT22;31152;49.190;8.122;2022-07-29T01:40:03;22.10;68.10
30186;DHT22;31152;49.190;8.122;2022-07-29T01:42:37;22.10;68.00
30186;DHT22;31152;49.190;8.122;2022-07-29T01:45:18;22.00;68.00
30186;DHT22;31152;49.190;8.122;2022-07-29T01:48:10;22.00;67.80
30186;DHT22;31152;49.190;8.122;2022-07-29T01:51:04;22.00;67.80
30186;DHT22;31152;49.190;8.122;2022-07-29T01:53:44;21.90;67.90
30186;DHT22;31152;49.190;8.122;2022-07-29T01:56:13;21.90;68.10
30186;DHT22;31152;49.190;8.122;2022-07-29T01:58:43;21.90;68.00
30186;DHT22;31152;49.190;8.122;2022-07-29T02:01:13;21.80;68.00
30186;DHT22;31152;49.190;8.122;2022-07-29T02:03:45;21.80;68.10
30186;DHT22;31152;49.190;8.122;2022-07-29T02:06:17;21.80;68.30
30186;DHT22;31152;49.190;8.122;2022-07-29T02:08:46;21.70;68.30
30186;DHT22;31152;49.190;8.122;2022-07-29T02:11:15;21.70;68.40
30186;DHT22;31152;49.190;8.122;2022-07-29T02:13:43;21.70;68.50
30186;DHT22;31152;49.190;8.122;2022-07-29T02:16:12;21.60;68.70
30186;DHT22;31152;49.190;8.122;2022-07-29T02:18:42;21.60;68.90
30186;DHT22;31152;49.190;8.122;2022-07-29T02:21:12;21.50;69.10
30186;DHT22;31152;49.190;8.122;2022-07-29T02:23:42;21.50;69.20
30186;DHT22;31152;49.190;8.122;2022-07-29T02:26:20;21.50;69.40
30186;DHT22;31152;49.190;8.122;2022-07-29T02:28:49;21.40;69.50
30186;DHT22;31152;49.190;8.122;2022-07-29T02:31:19;21.40;69.90
30186;DHT22;31152;49.190;8.122;2022-07-29T02:33:51;21.40;70.00
30186;DHT22;31152;49.190;8.122;2022-07-29T02:36:21;21.40;70.00
30186;DHT22;31152;49.190;8.122;2022-07-29T02:38:49;21.30;70.20
30186;DHT22;31152;49.190;8.122;2022-07-29T02:41:41;21.30;70.40
30186;DHT22;31152;49.190;8.122;2022-07-29T02:44:16;21.30;70.50
30186;DHT22;31152;49.190;8.122;2022-07-29T02:52:39;21.20;71.00
30186;DHT22;31152;49.190;8.122;2022-07-29T02:57:44;21.00;71.70
30186;DHT22;31152;49.190;8.122;2022-07-29T03:00:21;21.00;71.20
30186;DHT22;31152;49.190;8.122;2022-07-29T03:02:52;21.00;71.40
30186;DHT22;31152;49.190;8.122;2022-07-29T03:05:20;21.00;71.20
30186;DHT22;31152;49.190;8.122;2022-07-29T03:07:58;21.00;71.10
30186;DHT22;31152;49.190;8.122;2022-07-29T03:10:26;21.00;71.00
30186;DHT22;31152;49.190;8.122;2022-07-29T03:12:54;21.00;71.10
30186;DHT22;31152;49.190;8.122;2022-07-29T03:15:24;21.00;71.20
30186;DHT22;31152;49.190;8.122;2022-07-29T03:17:52;21.00;71.10
30186;DHT22;31152;49.190;8.122;2022-07-29T03:20:19;20.90;71.00
30186;DHT22;31152;49.190;8.122;2022-07-29T03:22:46;20.90;71.10
30186;DHT22;31152;49.190;8.122;2022-07-29T03:25:18;20.90;71.00
30186;DHT22;31152;49.190;8.122;2022-07-29T03:27:46;20.80;71.40
30186;DHT22;31152;49.190;8.122;2022-07-29T03:30:13;20.80;71.10
30186;DHT22;31152;49.190;8.122;2022-07-29T03:32:48;20.80;71.50
30186;DHT22;31152;49.190;8.122;2022-07-29T03:35:17;20.80;71.70
30186;DHT22;31152;49.190;8.122;2022-07-29T03:37:44;20.80;72.00
30186;DHT22;31152;49.190;8.122;2022-07-29T03:40:26;20.80;71.90
30186;DHT22;31152;49.190;8.122;2022-07-29T03:42:55;20.70;72.00
30186;DHT22;31152;49.190;8.122;2022-07-29T03:45:22;20.70;72.20
30186;DHT22;31152;49.190;8.122;2022-07-29T03:47:56;20.70;72.20
30186;DHT22;31152;49.190;8.122;2022-07-29T03:50:30;20.80;71.90
30186;DHT22;31152;49.190;8.122;2022-07-29T03:52:58;20.80;72.20
30186;DHT22;31152;49.190;8.122;2022-07-29T03:55:26;20.70;72.50
30186;DHT22;31152;49.190;8.122;2022-07-29T03:57:56;20.70;72.70
30186;DHT22;31152;49.190;8.122;2022-07-29T04:00:27;20.70;72.80
30186;DHT22;31152;49.190;8.122;2022-07-29T04:02:53;20.70;72.70
30186;DHT22;31152;49.190;8.122;2022-07-29T04:05:20;20.70;72.60
30186;DHT22;31152;49.190;8.122;2022-07-29T04:07:48;20.60;74.90
30186;DHT22;31152;49.190;8.122;2022-07-29T04:10:15;20.60;75.50
30186;DHT22;31152;49.190;8.122;2022-07-29T04:12:57;20.60;75.80
30186;DHT22;31152;49.190;8.122;2022-07-29T04:15:24;20.50;76.80
30186;DHT22;31152;49.190;8.122;2022-07-29T04:17:56;20.40;77.50
30186;DHT22;31152;49.190;8.122;2022-07-29T04:20:23;20.30;78.60
30186;DHT22;31152;49.190;8.122;2022-07-29T04:22:50;20.20;79.50
30186;DHT22;31152;49.190;8.122;2022-07-29T04:25:17;20.00;80.60
30186;DHT22;31152;49.190;8.122;2022-07-29T04:27:43;19.90;81.50
30186;DHT22;31152;49.190;8.122;2022-07-29T04:30:30;19.80;82.70
30186;DHT22;31152;49.190;8.122;2022-07-29T04:32:58;19.70;83.70
30186;DHT22;31152;49.190;8.122;2022-07-29T04:35:25;19.60;84.40
30186;DHT22;31152;49.190;8.122;2022-07-29T04:37:54;19.50;85.00
30186;DHT22;31152;49.190;8.122;2022-07-29T04:40:21;19.40;85.50
30186;DHT22;31152;49.190;8.122;2022-07-29T04:42:47;19.30;86.00
30186;DHT22;31152;49.190;8.122;2022-07-29T04:45:15;19.20;86.60
30186;DHT22;31152;49.190;8.122;2022-07-29T04:47:47;19.10;87.00
30186;DHT22;31152;49.190;8.122;2022-07-29T04:50:17;19.10;87.40
30186;DHT22;31152;49.190;8.122;2022-07-29T04:52:46;19.10;87.40
30186;DHT22;31152;49.190;8.122;2022-07-29T04:55:12;19.10;87.70
30186;DHT22;31152;49.190;8.122;2022-07-29T04:57:42;19.20;88.00
30186;DHT22;31152;49.190;8.122;2022-07-29T05:00:09;19.10;89.20
30186;DHT22;31152;49.190;8.122;2022-07-29T05:02:36;19.10;88.40
30186;DHT22;31152;49.190;8.122;2022-07-29T05:05:06;19.10;88.30
30186;DHT22;31152;49.190;8.122;2022-07-29T05:07:33;19.10;88.90
30186;DHT22;31152;49.190;8.122;2022-07-29T05:10:00;19.20;89.10
30186;DHT22;31152;49.190;8.122;2022-07-29T05:12:26;19.10;89.40
30186;DHT22;31152;49.190;8.122;2022-07-29T05:14:56;19.00;89.80
30186;DHT22;31152;49.190;8.122;2022-07-29T05:17:22;19.10;89.50
30186;DHT22;31152;49.190;8.122;2022-07-29T05:19:49;19.30;88.90
30186;DHT22;31152;49.190;8.122;2022-07-29T05:22:18;19.40;88.60
30186;DHT22;31152;49.190;8.122;2022-07-29T05:24:45;19.50;88.40
30186;DHT22;31152;49.190;8.122;2022-07-29T05:27:12;19.50;88.60
30186;DHT22;31152;49.190;8.122;2022-07-29T05:29:39;19.70;88.50
30186;DHT22;31152;49.190;8.122;2022-07-29T05:32:12;19.70;88.80
30186;DHT22;31152;49.190;8.122;2022-07-29T05:34:43;19.80;88.40
30186;DHT22;31152;49.190;8.122;2022-07-29T05:37:18;19.90;87.90
30186;DHT22;31152;49.190;8.122;2022-07-29T05:39:47;20.00;88.00
30186;DHT22;31152;49.190;8.122;2022-07-29T05:42:25;20.00;87.40
30186;DHT22;31152;49.190;8.122;2022-07-29T05:44:54;20.10;87.10
30186;DHT22;31152;49.190;8.122;2022-07-29T05:47:27;20.20;86.80
30186;DHT22;31152;49.190;8.122;2022-07-29T05:49:53;20.30;86.90
30186;DHT22;31152;49.190;8.122;2022-07-29T05:52:20;20.40;86.50
30186;DHT22;31152;49.190;8.122;2022-07-29T05:54:47;20.50;85.80
30186;DHT22;31152;49.190;8.122;2022-07-29T05:57:22;20.60;85.80
30186;DHT22;31152;49.190;8.122;2022-07-29T05:59:52;20.70;85.30
30186;DHT22;31152;49.190;8.122;2022-07-29T06:02:19;20.70;85.00
30186;DHT22;31152;49.190;8.122;2022-07-29T06:04:48;20.80;84.80
30186;DHT22;31152;49.190;8.122;2022-07-29T06:07:16;20.90;84.60
30186;DHT22;31152;49.190;8.122;2022-07-29T06:09:45;21.00;84.00
30186;DHT22;31152;49.190;8.122;2022-07-29T06:12:12;21.10;83.70
30186;DHT22;31152;49.190;8.122;2022-07-29T06:14:39;21.20;83.60
30186;DHT22;31152;49.190;8.122;2022-07-29T06:17:07;21.30;83.20
30186;DHT22;31152;49.190;8.122;2022-07-29T06:19:37;21.40;83.00
30186;DHT22;31152;49.190;8.122;2022-07-29T06:22:04;21.40;83.00
30186;DHT22;31152;49.190;8.122;2022-07-29T06:24:31;21.50;83.00
30186;DHT22;31152;49.190;8.122;2022-07-29T06:26:58;21.60;83.30
30186;DHT22;31152;49.190;8.122;2022-07-29T06:29:25;21.80;82.90
30186;DHT22;31152;49.190;8.122;2022-07-29T06:31:54;21.90;81.80
30186;DHT22;31152;49.190;8.122;2022-07-29T06:34:23;22.00;82.00
30186;DHT22;31152;49.190;8.122;2022-07-29T06:36:50;22.10;81.70
30186;DHT22;31152;49.190;8.122;2022-07-29T06:39:20;22.20;81.20
30186;DHT22;31152;49.190;8.122;2022-07-29T06:41:51;22.20;81.20
30186;DHT22;31152;49.190;8.122;2022-07-29T06:44:18;22.20;81.20
30186;DHT22;31152;49.190;8.122;2022-07-29T06:46:46;22.20;81.90
30186;DHT22;31152;49.190;8.122;2022-07-29T06:49:15;22.20;82.40
30186;DHT22;31152;49.190;8.122;2022-07-29T06:51:42;22.20;82.40
30186;DHT22;31152;49.190;8.122;2022-07-29T06:54:09;22.20;82.40
30186;DHT22;31152;49.190;8.122;2022-07-29T06:56:36;22.20;82.10
30186;DHT22;31152;49.190;8.122;2022-07-29T06:59:09;22.20;82.30
30186;DHT22;31152;49.190;8.122;2022-07-29T07:01:41;22.30;82.00
30186;DHT22;31152;49.190;8.122;2022-07-29T07:04:09;22.30;82.00
30186;DHT22;31152;49.190;8.122;2022-07-29T07:06:37;22.40;81.60
30186;DHT22;31152;49.190;8.122;2022-07-29T07:09:04;22.40;81.70
30186;DHT22;31152;49.190;8.122;2022-07-29T07:11:31;22.40;82.30
30186;DHT22;31152;49.190;8.122;2022-07-29T07:13:58;22.40;81.50
30186;DHT22;31152;49.190;8.122;2022-07-29T07:16:30;22.50;81.40
30186;DHT22;31152;49.190;8.122;2022-07-29T07:18:57;22.60;81.20
30186;DHT22;31152;49.190;8.122;2022-07-29T07:21:24;22.60;81.20
30186;DHT22;31152;49.190;8.122;2022-07-29T07:23:53;22.60;81.60
30186;DHT22;31152;49.190;8.122;2022-07-29T07:26:20;22.60;81.90
30186;DHT22;31152;49.190;8.122;2022-07-29T07:28:47;22.70;81.90
30186;DHT22;31152;49.190;8.122;2022-07-29T07:31:13;22.70;81.70
30186;DHT22;31152;49.190;8.122;2022-07-29T07:33:40;22.80;81.80
30186;DHT22;31152;49.190;8.122;2022-07-29T07:36:07;22.90;81.60
30186;DHT22;31152;49.190;8.122;2022-07-29T07:38:37;22.90;82.40
30186;DHT22;31152;49.190;8.122;2022-07-29T07:41:07;23.00;82.90
30186;DHT22;31152;49.190;8.122;2022-07-29T07:43:34;23.10;81.80
30186;DHT22;31152;49.190;8.122;2022-07-29T07:46:00;23.20;82.00
30186;DHT22;31152;49.190;8.122;2022-07-29T07:48:32;23.30;81.90
30186;DHT22;31152;49.190;8.122;2022-07-29T07:51:01;23.40;80.80
30186;DHT22;31152;49.190;8.122;2022-07-29T07:53:30;23.40;80.80
30186;DHT22;31152;49.190;8.122;2022-07-29T07:55:58;23.40;81.70
30186;DHT22;31152;49.190;8.122;2022-07-29T07:58:40;23.40;80.80
30186;DHT22;31152;49.190;8.122;2022-07-29T08:01:09;23.40;81.20
30186;DHT22;31152;49.190;8.122;2022-07-29T08:03:36;23.50;80.90
30186;DHT22;31152;49.190;8.122;2022-07-29T08:06:03;23.60;81.20
30186;DHT22;31152;49.190;8.122;2022-07-29T08:08:31;23.70;81.20
30186;DHT22;31152;49.190;8.122;2022-07-29T08:10:57;23.90;81.20
30186;DHT22;31152;49.190;8.122;2022-07-29T08:13:31;24.00;80.40
30186;DHT22;31152;49.190;8.122;2022-07-29T08:15:58;24.20;79.40
30186;DHT22;31152;49.190;8.122;2022-07-29T08:18:38;24.40;79.50
30186;DHT22;31152;49.190;8.122;2022-07-29T08:21:05;24.50;78.20
30186;DHT22;31152;49.190;8.122;2022-07-29T08:23:31;24.50;77.80
30186;DHT22;31152;49.190;8.122;2022-07-29T08:26:20;24.60;78.10
30186;DHT22;31152;49.190;8.122;2022-07-29T08:28:48;24.50;78.00
30186;DHT22;31152;49.190;8.122;2022-07-29T08:31:17;24.50;77.50
30186;DHT22;31152;49.190;8.122;2022-07-29T08:33:44;24.40;77.60
30186;DHT22;31152;49.190;8.122;2022-07-29T08:36:11;24.30;78.20
30186;DHT22;31152;49.190;8.122;2022-07-29T08:38:42;24.40;78.60
30186;DHT22;31152;49.190;8.122;2022-07-29T08:41:09;24.40;77.60
30186;DHT22;31152;49.190;8.122;2022-07-29T08:43:36;24.40;78.00
30186;DHT22;31152;49.190;8.122;2022-07-29T08:46:04;24.40;78.10
30186;DHT22;31152;49.190;8.122;2022-07-29T08:48:31;24.50;78.10
30186;DHT22;31152;49.190;8.122;2022-07-29T08:51:01;24.60;76.60
30186;DHT22;31152;49.190;8.122;2022-07-29T08:53:30;24.70;76.20
30186;DHT22;31152;49.190;8.122;2022-07-29T08:55:57;24.80;73.80
30186;DHT22;31152;49.190;8.122;2022-07-29T08:58:25;24.90;72.30
30186;DHT22;31152;49.190;8.122;2022-07-29T09:00:55;24.80;71.70
30186;DHT22;31152;49.190;8.122;2022-07-29T09:03:25;24.80;71.20
30186;DHT22;31152;49.190;8.122;2022-07-29T09:05:52;24.70;71.00
30186;DHT22;31152;49.190;8.122;2022-07-29T09:08:19;24.70;71.70
30186;DHT22;31152;49.190;8.122;2022-07-29T09:10:47;24.60;71.70
30186;DHT22;31152;49.190;8.122;2022-07-29T09:13:14;24.60;72.20
30186;DHT22;31152;49.190;8.122;2022-07-29T09:15:41;24.60;72.50
30186;DHT22;31152;49.190;8.122;2022-07-29T09:18:12;24.60;75.00
30186;DHT22;31152;49.190;8.122;2022-07-29T09:20:59;24.60;75.00
30186;DHT22;31152;49.190;8.122;2022-07-29T09:26:38;24.80;72.70
30186;DHT22;31152;49.190;8.122;2022-07-29T09:29:14;24.90;70.30
30186;DHT22;31152;49.190;8.122;2022-07-29T09:31:43;25.00;69.00
30186;DHT22;31152;49.190;8.122;2022-07-29T09:34:31;25.10;69.50
30186;DHT22;31152;49.190;8.122;2022-07-29T09:36:58;25.10;69.30
30186;DHT22;31152;49.190;8.122;2022-07-29T09:41:56;25.20;68.80
30186;DHT22;31152;49.190;8.122;2022-07-29T09:44:24;25.30;69.10
30186;DHT22;31152;49.190;8.122;2022-07-29T09:46:59;25.30;69.20
30186;DHT22;31152;49.190;8.122;2022-07-29T09:49:54;25.40;68.70
30186;DHT22;31152;49.190;8.122;2022-07-29T09:52:21;25.50;68.30
30186;DHT22;31152;49.190;8.122;2022-07-29T09:54:51;25.60;68.30
30186;DHT22;31152;49.190;8.122;2022-07-29T09:57:28;25.80;68.30
30186;DHT22;31152;49.190;8.122;2022-07-29T10:00:10;26.00;67.90
30186;DHT22;31152;49.190;8.122;2022-07-29T10:02:38;26.10;67.10
30186;DHT22;31152;49.190;8.122;2022-07-29T10:05:23;26.20;67.20
30186;DHT22;31152;49.190;8.122;2022-07-29T10:07:52;26.30;67.80
30186;DHT22;31152;49.190;8.122;2022-07-29T10:10:34;26.30;65.90
30186;DHT22;31152;49.190;8.122;2022-07-29T10:13:04;26.40;66.70
30186;DHT22;31152;49.190;8.122;2022-07-29T10:15:40;26.60;65.90
30186;DHT22;31152;49.190;8.122;2022-07-29T10:18:08;26.70;65.70
30186;DHT22;31152;49.190;8.122;2022-07-29T10:20:38;26.90;65.40
30186;DHT22;31152;49.190;8.122;2022-07-29T10:23:05;27.20;65.20
30186;DHT22;31152;49.190;8.122;2022-07-29T10:25:35;27.40;64.00
30186;DHT22;31152;49.190;8.122;2022-07-29T10:28:02;27.20;60.60
30186;DHT22;31152;49.190;8.122;2022-07-29T10:30:29;27.30;61.60
30186;DHT22;31152;49.190;8.122;2022-07-29T10:36:15;27.70;62.10
30186;DHT22;31152;49.190;8.122;2022-07-29T10:38:58;28.10;60.20
30186;DHT22;31152;49.190;8.122;2022-07-29T10:46:45;28.30;59.50
30186;DHT22;31152;49.190;8.122;2022-07-29T10:49:20;28.40;59.40
30186;DHT22;31152;49.190;8.122;2022-07-29T10:51:57;28.60;59.50
30186;DHT22;31152;49.190;8.122;2022-07-29T10:54:47;28.60;58.10
30186;DHT22;31152;49.190;8.122;2022-07-29T11:02:44;28.30;57.70
30186;DHT22;31152;49.190;8.122;2022-07-29T11:05:55;28.20;57.30
30186;DHT22;31152;49.190;8.122;2022-07-29T11:08:26;28.10;58.10
30186;DHT22;31152;49.190;8.122;2022-07-29T11:13:55;28.20;57.80
30186;DHT22;31152;49.190;8.122;2022-07-29T11:16:23;28.20;57.20
30186;DHT22;31152;49.190;8.122;2022-07-29T11:21:42;28.10;57.50
30186;DHT22;31152;49.190;8.122;2022-07-29T11:24:21;28.00;57.60
30186;DHT22;31152;49.190;8.122;2022-07-29T11:27:13;28.00;58.20
30186;DHT22;31152;49.190;8.122;2022-07-29T11:29:55;27.90;58.40
30186;DHT22;31152;49.190;8.122;2022-07-29T11:32:25;27.70;58.70
30186;DHT22;31152;49.190;8.122;2022-07-29T11:35:23;27.60;59.40
30186;DHT22;31152;49.190;8.122;2022-07-29T11:43:57;27.50;59.70
30186;DHT22;31152;49.190;8.122;2022-07-29T11:49:10;27.40;60.30
30186;DHT22;31152;49.190;8.122;2022-07-29T11:51:41;27.60;60.40
30186;DHT22;31152;49.190;8.122;2022-07-29T11:54:34;27.70;58.00
30186;DHT22;31152;49.190;8.122;2022-07-29T11:57:21;27.90;57.30
30186;DHT22;31152;49.190;8.122;2022-07-29T12:00:04;28.10;56.50
30186;DHT22;31152;49.190;8.122;2022-07-29T12:02:42;28.30;56.60
30186;DHT22;31152;49.190;8.122;2022-07-29T12:05:14;28.50;56.50
30186;DHT22;31152;49.190;8.122;2022-07-29T12:10:40;28.90;55.70
30186;DHT22;31152;49.190;8.122;2022-07-29T12:13:10;29.00;55.70
30186;DHT22;31152;49.190;8.122;2022-07-29T12:15:38;29.20;55.60
30186;DHT22;31152;49.190;8.122;2022-07-29T12:18:18;29.40;55.20
30186;DHT22;31152;49.190;8.122;2022-07-29T12:20:57;29.60;54.60
30186;DHT22;31152;49.190;8.122;2022-07-29T12:23:24;29.60;54.60
30186;DHT22;31152;49.190;8.122;2022-07-29T12:25:55;29.50;54.70
30186;DHT22;31152;49.190;8.122;2022-07-29T12:28:22;29.30;54.90
30186;DHT22;31152;49.190;8.122;2022-07-29T12:30:53;29.00;55.80
30186;DHT22;31152;49.190;8.122;2022-07-29T12:33:28;28.90;55.90
30186;DHT22;31152;49.190;8.122;2022-07-29T12:35:57;28.70;56.50
30186;DHT22;31152;49.190;8.122;2022-07-29T12:38:37;28.50;56.60
30186;DHT22;31152;49.190;8.122;2022-07-29T12:41:06;28.30;56.70
30186;DHT22;31152;49.190;8.122;2022-07-29T12:43:33;28.10;57.10
30186;DHT22;31152;49.190;8.122;2022-07-29T12:46:14;28.00;57.50
30186;DHT22;31152;49.190;8.122;2022-07-29T12:48:43;27.90;57.40
30186;DHT22;31152;49.190;8.122;2022-07-29T12:51:11;27.90;57.70
30186;DHT22;31152;49.190;8.122;2022-07-29T12:54:00;27.90;57.80
30186;DHT22;31152;49.190;8.122;2022-07-29T12:56:27;27.90;58.10
30186;DHT22;31152;49.190;8.122;2022-07-29T12:59:21;27.90;57.10
30186;DHT22;31152;49.190;8.122;2022-07-29T13:01:51;27.90;56.80
30186;DHT22;31152;49.190;8.122;2022-07-29T13:04:32;27.70;56.10
30186;DHT22;31152;49.190;8.122;2022-07-29T13:07:04;27.70;55.40
30186;DHT22;31152;49.190;8.122;2022-07-29T13:09:51;27.70;55.80
30186;DHT22;31152;49.190;8.122;2022-07-29T13:12:18;27.70;55.80
30186;DHT22;31152;49.190;8.122;2022-07-29T13:14:48;27.70;55.10
30186;DHT22;31152;49.190;8.122;2022-07-29T13:19:49;27.70;54.90
30186;DHT22;31152;49.190;8.122;2022-07-29T13:22:21;27.80;55.40
30186;DHT22;31152;49.190;8.122;2022-07-29T13:24:56;27.90;55.30
30186;DHT22;31152;49.190;8.122;2022-07-29T13:27:33;27.90;55.80
30186;DHT22;31152;49.190;8.122;2022-07-29T13:30:02;28.00;55.20
30186;DHT22;31152;49.190;8.122;2022-07-29T13:32:31;28.10;55.40
30186;DHT22;31152;49.190;8.122;2022-07-29T13:35:07;28.20;55.10
30186;DHT22;31152;49.190;8.122;2022-07-29T13:37:35;28.20;54.90
30186;DHT22;31152;49.190;8.122;2022-07-29T13:40:06;28.30;55.20
30186;DHT22;31152;49.190;8.122;2022-07-29T13:42:33;28.30;55.10
30186;DHT22;31152;49.190;8.122;2022-07-29T13:45:03;28.40;54.80
30186;DHT22;31152;49.190;8.122;2022-07-29T13:47:30;28.40;54.30
30186;DHT22;31152;49.190;8.122;2022-07-29T13:50:02;28.40;54.90
30186;DHT22;31152;49.190;8.122;2022-07-29T13:52:32;28.30;54.30
30186;DHT22;31152;49.190;8.122;2022-07-29T13:55:01;28.50;54.40
30186;DHT22;31152;49.190;8.122;2022-07-29T13:57:30;28.50;53.50
30186;DHT22;31152;49.190;8.122;2022-07-29T13:59:57;28.70;53.00
30186;DHT22;31152;49.190;8.122;2022-07-29T14:02:24;28.80;52.50
30186;DHT22;31152;49.190;8.122;2022-07-29T14:04:53;28.70;52.10
30186;DHT22;31152;49.190;8.122;2022-07-29T14:07:23;28.60;51.80
30186;DHT22;31152;49.190;8.122;2022-07-29T14:09:51;28.60;52.00
30186;DHT22;31152;49.190;8.122;2022-07-29T14:12:18;28.60;51.50
30186;DHT22;31152;49.190;8.122;2022-07-29T14:14:45;28.50;51.90
30186;DHT22;31152;49.190;8.122;2022-07-29T14:17:15;28.50;52.50
30186;DHT22;31152;49.190;8.122;2022-07-29T14:19:44;28.50;51.40
30186;DHT22;31152;49.190;8.122;2022-07-29T14:22:13;28.50;51.80
30186;DHT22;31152;49.190;8.122;2022-07-29T14:24:40;28.50;52.40
30186;DHT22;31152;49.190;8.122;2022-07-29T14:27:08;28.60;52.80
30186;DHT22;31152;49.190;8.122;2022-07-29T14:29:35;28.70;52.10
30186;DHT22;31152;49.190;8.122;2022-07-29T14:32:07;28.70;51.70
30186;DHT22;31152;49.190;8.122;2022-07-29T14:34:38;28.80;51.50
30186;DHT22;31152;49.190;8.122;2022-07-29T14:37:05;28.90;51.30
30186;DHT22;31152;49.190;8.122;2022-07-29T14:39:33;28.70;50.20
30186;DHT22;31152;49.190;8.122;2022-07-29T14:42:10;28.70;51.10
30186;DHT22;31152;49.190;8.122;2022-07-29T14:44:42;28.80;50.80
30186;DHT22;31152;49.190;8.122;2022-07-29T14:47:10;28.70;50.40
30186;DHT22;31152;49.190;8.122;2022-07-29T14:49:39;28.60;50.60
30186;DHT22;31152;49.190;8.122;2022-07-29T14:52:06;28.70;50.10
30186;DHT22;31152;49.190;8.122;2022-07-29T14:54:32;28.70;49.80
30186;DHT22;31152;49.190;8.122;2022-07-29T14:56:59;28.70;50.10
30186;DHT22;31152;49.190;8.122;2022-07-29T14:59:26;28.80;49.70
30186;DHT22;31152;49.190;8.122;2022-07-29T15:01:53;28.80;49.80
30186;DHT22;31152;49.190;8.122;2022-07-29T15:04:20;28.80;50.10
30186;DHT22;31152;49.190;8.122;2022-07-29T15:06:47;28.80;49.60
30186;DHT22;31152;49.190;8.122;2022-07-29T15:09:14;28.70;49.20
30186;DHT22;31152;49.190;8.122;2022-07-29T15:11:41;28.70;49.70
30186;DHT22;31152;49.190;8.122;2022-07-29T15:14:08;28.70;49.70
30186;DHT22;31152;49.190;8.122;2022-07-29T15:16:38;28.60;49.80
30186;DHT22;31152;49.190;8.122;2022-07-29T15:19:10;28.70;49.60
30186;DHT22;31152;49.190;8.122;2022-07-29T15:21:37;28.70;49.10
30186;DHT22;31152;49.190;8.122;2022-07-29T15:24:24;28.70;49.20
30186;DHT22;31152;49.190;8.122;2022-07-29T15:26:50;28.70;49.80
30186;DHT22;31152;49.190;8.122;2022-07-29T15:29:18;28.80;49.00
30186;DHT22;31152;49.190;8.122;2022-07-29T15:31:45;28.90;49.00
30186;DHT22;31152;49.190;8.122;2022-07-29T15:34:12;29.00;49.00
30186;DHT22;31152;49.190;8.122;2022-07-29T15:36:39;29.00;49.00
30186;DHT22;31152;49.190;8.122;2022-07-29T15:39:21;29.10;48.90
30186;DHT22;31152;49.190;8.122;2022-07-29T15:41:49;29.20;48.10
30186;DHT22;31152;49.190;8.122;2022-07-29T15:44:16;29.10;47.60
30186;DHT22;31152;49.190;8.122;2022-07-29T15:46:43;29.30;47.00
30186;DHT22;31152;49.190;8.122;2022-07-29T15:49:39;29.40;46.50
30186;DHT22;31152;49.190;8.122;2022-07-29T15:52:16;29.60;45.10
30186;DHT22;31152;49.190;8.122;2022-07-29T15:54:50;30.10;44.70
30186;DHT22;31152;49.190;8.122;2022-07-29T15:57:17;30.60;42.00
30186;DHT22;31152;49.190;8.122;2022-07-29T15:59:43;30.90;41.40
30186;DHT22;31152;49.190;8.122;2022-07-29T16:02:13;31.30;40.20
30186;DHT22;31152;49.190;8.122;2022-07-29T16:04:39;31.30;38.40
30186;DHT22;31152;49.190;8.122;2022-07-29T16:07:09;31.30;38.60
30186;DHT22;31152;49.190;8.122;2022-07-29T16:09:35;31.50;38.60
30186;DHT22;31152;49.190;8.122;2022-07-29T16:12:12;31.70;38.60
30186;DHT22;31152;49.190;8.122;2022-07-29T16:14:42;32.10;39.00
30186;DHT22;31152;49.190;8.122;2022-07-29T16:17:09;32.30;37.80
30186;DHT22;31152;49.190;8.122;2022-07-29T16:19:41;32.40;38.00
30186;DHT22;31152;49.190;8.122;2022-07-29T16:22:08;32.40;37.70
30186;DHT22;31152;49.190;8.122;2022-07-29T16:24:35;32.30;37.90
30186;DHT22;31152;49.190;8.122;2022-07-29T16:27:02;32.20;38.10
30186;DHT22;31152;49.190;8.122;2022-07-29T16:29:31;32.00;38.30
30186;DHT22;31152;49.190;8.122;2022-07-29T16:31:59;31.70;38.60
30186;DHT22;31152;49.190;8.122;2022-07-29T16:34:26;31.80;38.50
30186;DHT22;31152;49.190;8.122;2022-07-29T16:36:53;31.80;38.70
30186;DHT22;31152;49.190;8.122;2022-07-29T16:39:22;31.50;38.90
30186;DHT22;31152;49.190;8.122;2022-07-29T16:41:51;31.20;39.50
30186;DHT22;31152;49.190;8.122;2022-07-29T16:44:22;30.90;40.70
30186;DHT22;31152;49.190;8.122;2022-07-29T16:46:50;30.90;40.50
30186;DHT22;31152;49.190;8.122;2022-07-29T16:49:21;30.80;41.00
30186;DHT22;31152;49.190;8.122;2022-07-29T16:51:48;30.60;41.20